sensor_id;sensor_type;location;lat;lon;timestamp;P1;durP1;ratioP1;P2;durP2;ratioP2
32026;SDS011;18543;50.848;4.596;2023-04-24T00:01:23;4.63;;;2.57;;
32026;SDS011;18543;50.848;4.596;2023-04-24T00:03:50;5.45;;;2.83;;
32026;SDS011;18543;50.848;4.596;2023-04-24T00:06:18;5.00;;;2.85;;
32026;SDS011;18543;50.848;4.596;2023-04-24T00:08:45;4.95;;;2.65;;
32026;SDS011;18543;50.848;4.596;2023-04-24T00:11:15;6.35;;;2.95;;
32026;SDS011;18543;50.848;4.596;2023-04-24T00:13:42;4.53;;;2.42;;
32026;SDS011;18543;50.848;4.596;2023-04-24T00:16:09;5.75;;;2.72;;
32026;SDS011;18543;50.848;4.596;2023-04-24T00:18:36;4.70;;;2.60;;
32026;SDS011;18543;50.848;4.596;2023-04-24T00:21:04;5.53;;;2.80;;
32026;SDS011;18543;50.848;4.596;2023-04-24T00:23:31;6.13;;;2.83;;
32026;SDS011;18543;50.848;4.596;2023-04-24T00:25:59;3.72;;;2.42;;
32026;SDS011;18543;50.848;4.596;2023-04-24T00:28:26;5.30;;;2.80;;
32026;SDS011;18543;50.848;4.596;2023-04-24T00:30:53;5.70;;;2.50;;
32026;SDS011;18543;50.848;4.596;2023-04-24T00:33:20;5.30;;;2.70;;
32026;SDS011;18543;50.848;4.596;2023-04-24T00:35:50;4.05;;;2.65;;
32026;SDS011;18543;50.848;4.596;2023-04-24T00:38:17;4.40;;;2.75;;
32026;SDS011;18543;50.848;4.596;2023-04-24T00:40:45;5.03;;;2.75;;
32026;SDS011;18543;50.848;4.596;2023-04-24T00:43:13;3.65;;;2.45;;
32026;SDS011;18543;50.848;4.596;2023-04-24T00:45:41;3.30;;;2.70;;
32026;SDS011;18543;50.848;4.596;2023-04-24T00:48:08;4.47;;;2.60;;
32026;SDS011;18543;50.848;4.596;2023-04-24T00:50:36;3.92;;;2.35;;
32026;SDS011;18543;50.848;4.596;2023-04-24T00:53:03;4.00;;;2.88;;
32026;SDS011;18543;50.848;4.596;2023-04-24T00:55:30;3.90;;;2.63;;
32026;SDS011;18543;50.848;4.596;2023-04-24T00:57:59;3.72;;;2.70;;
32026;SDS011;18543;50.848;4.596;2023-04-24T01:00:26;5.05;;;2.70;;
32026;SDS011;18543;50.848;4.596;2023-04-24T01:02:53;4.50;;;2.87;;
32026;SDS011;18543;50.848;4.596;2023-04-24T01:05:21;4.95;;;2.50;;
32026;SDS011;18543;50.848;4.596;2023-04-24T01:07:49;4.03;;;2.50;;
32026;SDS011;18543;50.848;4.596;2023-04-24T01:10:16;5.23;;;2.67;;
32026;SDS011;18543;50.848;4.596;2023-04-24T01:12:44;4.00;;;2.60;;
32026;SDS011;18543;50.848;4.596;2023-04-24T01:15:11;3.40;;;2.53;;
32026;SDS011;18543;50.848;4.596;2023-04-24T01:17:39;4.47;;;2.53;;
32026;SDS011;18543;50.848;4.596;2023-04-24T01:20:06;4.55;;;2.60;;
32026;SDS011;18543;50.848;4.596;2023-04-24T01:22:34;3.55;;;2.30;;
32026;SDS011;18543;50.848;4.596;2023-04-24T01:25:02;4.28;;;2.50;;
32026;SDS011;18543;50.848;4.596;2023-04-24T01:27:29;4.25;;;2.67;;
32026;SDS011;18543;50.848;4.596;2023-04-24T01:29:57;4.47;;;2.50;;
32026;SDS011;18543;50.848;4.596;2023-04-24T01:32:24;4.38;;;2.53;;
32026;SDS011;18543;50.848;4.596;2023-04-24T01:34:53;4.15;;;2.33;;
32026;SDS011;18543;50.848;4.596;2023-04-24T01:37:21;4.07;;;2.33;;
32026;SDS011;18543;50.848;4.596;2023-04-24T01:39:48;3.47;;;2.30;;
32026;SDS011;18543;50.848;4.596;2023-04-24T01:42:16;3.55;;;2.50;;
32026;SDS011;18543;50.848;4.596;2023-04-24T01:44:43;3.90;;;2.55;;
32026;SDS011;18543;50.848;4.596;2023-04-24T01:47:10;4.25;;;2.45;;
32026;SDS011;18543;50.848;4.596;2023-04-24T01:49:38;3.77;;;2.40;;
32026;SDS011;18543;50.848;4.596;2023-04-24T01:52:06;3.17;;;2.42;;
32026;SDS011;18543;50.848;4.596;2023-04-24T01:54:33;4.68;;;2.40;;
32026;SDS011;18543;50.848;4.596;2023-04-24T01:57:01;5.72;;;2.45;;
32026;SDS011;18543;50.848;4.596;2023-04-24T01:59:28;2.88;;;2.30;;
32026;SDS011;18543;50.848;4.596;2023-04-24T02:01:56;3.70;;;2.35;;
32026;SDS011;18543;50.848;4.596;2023-04-24T02:04:24;3.30;;;2.20;;
32026;SDS011;18543;50.848;4.596;2023-04-24T02:06:51;3.57;;;2.20;;
32026;SDS011;18543;50.848;4.596;2023-04-24T02:09:18;5.78;;;2.60;;
32026;SDS011;18543;50.848;4.596;2023-04-24T02:11:46;4.38;;;2.40;;
32026;SDS011;18543;50.848;4.596;2023-04-24T02:14:13;3.37;;;2.30;;
32026;SDS011;18543;50.848;4.596;2023-04-24T02:16:40;4.10;;;2.20;;
32026;SDS011;18543;50.848;4.596;2023-04-24T02:19:07;3.42;;;1.92;;
32026;SDS011;18543;50.848;4.596;2023-04-24T02:21:35;2.20;;;2.00;;
32026;SDS011;18543;50.848;4.596;2023-04-24T02:24:02;3.40;;;2.50;;
32026;SDS011;18543;50.848;4.596;2023-04-24T02:26:29;5.10;;;2.00;;
32026;SDS011;18543;50.848;4.596;2023-04-24T02:31:25;3.40;;;2.40;;
32026;SDS011;18543;50.848;4.596;2023-04-24T02:33:52;3.73;;;2.17;;
32026;SDS011;18543;50.848;4.596;2023-04-24T02:36:19;3.20;;;2.20;;
32026;SDS011;18543;50.848;4.596;2023-04-24T02:38:47;3.50;;;2.30;;
32026;SDS011;18543;50.848;4.596;2023-04-24T02:41:14;2.83;;;2.10;;
32026;SDS011;18543;50.848;4.596;2023-04-24T02:43:41;4.03;;;2.17;;
32026;SDS011;18543;50.848;4.596;2023-04-24T02:46:09;3.47;;;2.40;;
32026;SDS011;18543;50.848;4.596;2023-04-24T02:48:36;5.10;;;2.20;;
32026;SDS011;18543;50.848;4.596;2023-04-24T02:51:04;3.17;;;2.33;;
32026;SDS011;18543;50.848;4.596;2023-04-24T02:53:32;3.15;;;2.03;;
32026;SDS011;18543;50.848;4.596;2023-04-24T02:56:00;2.78;;;2.20;;
32026;SDS011;18543;50.848;4.596;2023-04-24T02:58:27;2.93;;;2.10;;
32026;SDS011;18543;50.848;4.596;2023-04-24T03:00:54;2.40;;;2.00;;
32026;SDS011;18543;50.848;4.596;2023-04-24T03:03:22;3.78;;;2.00;;
32026;SDS011;18543;50.848;4.596;2023-04-24T03:05:50;3.88;;;2.53;;
32026;SDS011;18543;50.848;4.596;2023-04-24T03:08:17;3.83;;;2.30;;
32026;SDS011;18543;50.848;4.596;2023-04-24T03:10:45;2.77;;;2.07;;
32026;SDS011;18543;50.848;4.596;2023-04-24T03:13:13;3.92;;;2.13;;
32026;SDS011;18543;50.848;4.596;2023-04-24T03:15:40;3.10;;;2.03;;
32026;SDS011;18543;50.848;4.596;2023-04-24T03:18:08;3.00;;;2.00;;
32026;SDS011;18543;50.848;4.596;2023-04-24T03:20:35;3.27;;;1.97;;
32026;SDS011;18543;50.848;4.596;2023-04-24T03:25:30;3.17;;;1.83;;
32026;SDS011;18543;50.848;4.596;2023-04-24T03:27:58;3.43;;;1.97;;
32026;SDS011;18543;50.848;4.596;2023-04-24T03:30:27;2.78;;;2.10;;
32026;SDS011;18543;50.848;4.596;2023-04-24T03:32:57;2.20;;;1.87;;
32026;SDS011;18543;50.848;4.596;2023-04-24T03:35:24;2.88;;;1.92;;
32026;SDS011;18543;50.848;4.596;2023-04-24T03:37:52;2.60;;;1.80;;
32026;SDS011;18543;50.848;4.596;2023-04-24T03:40:19;2.90;;;2.10;;
32026;SDS011;18543;50.848;4.596;2023-04-24T03:42:46;4.05;;;1.95;;
32026;SDS011;18543;50.848;4.596;2023-04-24T03:45:13;3.10;;;2.07;;
32026;SDS011;18543;50.848;4.596;2023-04-24T03:47:43;3.25;;;2.10;;
32026;SDS011;18543;50.848;4.596;2023-04-24T03:50:10;3.42;;;1.92;;
32026;SDS011;18543;50.848;4.596;2023-04-24T03:52:38;2.33;;;2.00;;
32026;SDS011;18543;50.848;4.596;2023-04-24T03:55:05;3.30;;;1.80;;
32026;SDS011;18543;50.848;4.596;2023-04-24T03:57:33;3.60;;;1.77;;
32026;SDS011;18543;50.848;4.596;2023-04-24T04:00:00;3.57;;;2.20;;
32026;SDS011;18543;50.848;4.596;2023-04-24T04:02:30;2.60;;;1.85;;
32026;SDS011;18543;50.848;4.596;2023-04-24T04:04:57;3.38;;;1.88;;
32026;SDS011;18543;50.848;4.596;2023-04-24T04:07:25;3.35;;;2.20;;
32026;SDS011;18543;50.848;4.596;2023-04-24T04:09:55;2.40;;;1.90;;
32026;SDS011;18543;50.848;4.596;2023-04-24T04:12:23;2.30;;;1.80;;
32026;SDS011;18543;50.848;4.596;2023-04-24T04:14:50;2.30;;;1.83;;
32026;SDS011;18543;50.848;4.596;2023-04-24T04:17:17;1.97;;;1.60;;
32026;SDS011;18543;50.848;4.596;2023-04-24T04:19:45;3.67;;;1.70;;
32026;SDS011;18543;50.848;4.596;2023-04-24T04:22:12;3.03;;;1.93;;
32026;SDS011;18543;50.848;4.596;2023-04-24T04:24:39;6.65;;;2.10;;
32026;SDS011;18543;50.848;4.596;2023-04-24T04:27:09;1.92;;;1.65;;
32026;SDS011;18543;50.848;4.596;2023-04-24T04:29:37;2.97;;;1.70;;
32026;SDS011;18543;50.848;4.596;2023-04-24T04:32:04;2.45;;;1.70;;
32026;SDS011;18543;50.848;4.596;2023-04-24T04:34:32;1.83;;;1.60;;
32026;SDS011;18543;50.848;4.596;2023-04-24T04:36:59;2.50;;;1.70;;
32026;SDS011;18543;50.848;4.596;2023-04-24T04:39:28;2.72;;;1.83;;
32026;SDS011;18543;50.848;4.596;2023-04-24T04:41:56;3.83;;;1.75;;
32026;SDS011;18543;50.848;4.596;2023-04-24T04:44:24;3.17;;;1.98;;
32026;SDS011;18543;50.848;4.596;2023-04-24T04:46:55;3.05;;;1.75;;
32026;SDS011;18543;50.848;4.596;2023-04-24T04:49:23;4.27;;;2.00;;
32026;SDS011;18543;50.848;4.596;2023-04-24T04:51:50;3.25;;;1.85;;
32026;SDS011;18543;50.848;4.596;2023-04-24T04:54:17;3.27;;;1.80;;
32026;SDS011;18543;50.848;4.596;2023-04-24T04:56:45;3.07;;;1.97;;
32026;SDS011;18543;50.848;4.596;2023-04-24T04:59:12;2.40;;;1.57;;
32026;SDS011;18543;50.848;4.596;2023-04-24T05:01:39;4.37;;;1.97;;
32026;SDS011;18543;50.848;4.596;2023-04-24T05:04:07;5.13;;;1.58;;
32026;SDS011;18543;50.848;4.596;2023-04-24T05:06:37;4.63;;;2.20;;
32026;SDS011;18543;50.848;4.596;2023-04-24T05:09:04;5.07;;;1.80;;
32026;SDS011;18543;50.848;4.596;2023-04-24T05:11:33;3.92;;;1.67;;
32026;SDS011;18543;50.848;4.596;2023-04-24T05:14:00;4.27;;;2.00;;
32026;SDS011;18543;50.848;4.596;2023-04-24T05:16:28;7.27;;;1.97;;
32026;SDS011;18543;50.848;4.596;2023-04-24T05:18:55;5.88;;;1.95;;
32026;SDS011;18543;50.848;4.596;2023-04-24T05:21:22;4.72;;;2.00;;
32026;SDS011;18543;50.848;4.596;2023-04-24T05:23:50;3.78;;;1.77;;
32026;SDS011;18543;50.848;4.596;2023-04-24T05:26:17;4.90;;;1.80;;
32026;SDS011;18543;50.848;4.596;2023-04-24T05:28:44;3.27;;;1.80;;
32026;SDS011;18543;50.848;4.596;2023-04-24T05:31:11;5.22;;;1.85;;
32026;SDS011;18543;50.848;4.596;2023-04-24T05:33:39;5.47;;;1.97;;
32026;SDS011;18543;50.848;4.596;2023-04-24T05:36:06;5.67;;;2.00;;
32026;SDS011;18543;50.848;4.596;2023-04-24T05:38:33;5.43;;;2.00;;
32026;SDS011;18543;50.848;4.596;2023-04-24T05:41:01;4.37;;;1.70;;
32026;SDS011;18543;50.848;4.596;2023-04-24T05:43:28;7.43;;;2.13;;
32026;SDS011;18543;50.848;4.596;2023-04-24T05:45:55;5.25;;;1.95;;
32026;SDS011;18543;50.848;4.596;2023-04-24T05:48:23;3.47;;;1.73;;
32026;SDS011;18543;50.848;4.596;2023-04-24T05:50:50;9.05;;;2.10;;
32026;SDS011;18543;50.848;4.596;2023-04-24T05:53:20;7.97;;;2.05;;
32026;SDS011;18543;50.848;4.596;2023-04-24T05:55:47;5.47;;;1.87;;
32026;SDS011;18543;50.848;4.596;2023-04-24T05:58:15;9.50;;;2.13;;
32026;SDS011;18543;50.848;4.596;2023-04-24T06:00:42;6.47;;;2.00;;
32026;SDS011;18543;50.848;4.596;2023-04-24T06:03:12;4.68;;;2.10;;
32026;SDS011;18543;50.848;4.596;2023-04-24T06:05:40;5.97;;;2.17;;
32026;SDS011;18543;50.848;4.596;2023-04-24T06:08:07;3.87;;;2.03;;
32026;SDS011;18543;50.848;4.596;2023-04-24T06:10:34;5.93;;;2.23;;
32026;SDS011;18543;50.848;4.596;2023-04-24T06:13:01;4.93;;;2.05;;
32026;SDS011;18543;50.848;4.596;2023-04-24T06:15:29;7.63;;;2.13;;
32026;SDS011;18543;50.848;4.596;2023-04-24T06:17:59;8.57;;;2.38;;
32026;SDS011;18543;50.848;4.596;2023-04-24T06:20:26;10.07;;;2.60;;
32026;SDS011;18543;50.848;4.596;2023-04-24T06:22:53;5.97;;;2.60;;
32026;SDS011;18543;50.848;4.596;2023-04-24T06:25:24;7.80;;;2.90;;
32026;SDS011;18543;50.848;4.596;2023-04-24T06:27:51;7.65;;;2.63;;
32026;SDS011;18543;50.848;4.596;2023-04-24T06:30:18;9.70;;;3.10;;
32026;SDS011;18543;50.848;4.596;2023-04-24T06:32:45;8.00;;;2.95;;
32026;SDS011;18543;50.848;4.596;2023-04-24T06:35:13;5.60;;;2.37;;
32026;SDS011;18543;50.848;4.596;2023-04-24T06:37:41;8.97;;;2.93;;
32026;SDS011;18543;50.848;4.596;2023-04-24T06:40:08;7.25;;;2.40;;
32026;SDS011;18543;50.848;4.596;2023-04-24T06:42:36;8.25;;;2.63;;
32026;SDS011;18543;50.848;4.596;2023-04-24T06:45:03;7.72;;;2.60;;
32026;SDS011;18543;50.848;4.596;2023-04-24T06:47:31;5.75;;;2.83;;
32026;SDS011;18543;50.848;4.596;2023-04-24T06:49:58;5.72;;;2.38;;
32026;SDS011;18543;50.848;4.596;2023-04-24T06:52:26;6.27;;;2.90;;
32026;SDS011;18543;50.848;4.596;2023-04-24T06:54:59;4.07;;;2.33;;
32026;SDS011;18543;50.848;4.596;2023-04-24T06:57:27;6.50;;;2.70;;
32026;SDS011;18543;50.848;4.596;2023-04-24T06:59:54;11.40;;;2.80;;
32026;SDS011;18543;50.848;4.596;2023-04-24T07:02:21;8.23;;;2.90;;
32026;SDS011;18543;50.848;4.596;2023-04-24T07:04:49;5.35;;;2.65;;
32026;SDS011;18543;50.848;4.596;2023-04-24T07:07:16;10.47;;;2.60;;
32026;SDS011;18543;50.848;4.596;2023-04-24T07:09:43;9.13;;;3.03;;
32026;SDS011;18543;50.848;4.596;2023-04-24T07:12:12;7.63;;;2.92;;
32026;SDS011;18543;50.848;4.596;2023-04-24T07:14:39;6.85;;;2.85;;
32026;SDS011;18543;50.848;4.596;2023-04-24T07:17:07;5.67;;;3.00;;
32026;SDS011;18543;50.848;4.596;2023-04-24T07:19:34;7.07;;;2.90;;
32026;SDS011;18543;50.848;4.596;2023-04-24T07:22:03;7.03;;;2.88;;
32026;SDS011;18543;50.848;4.596;2023-04-24T07:24:31;8.45;;;3.05;;
32026;SDS011;18543;50.848;4.596;2023-04-24T07:26:59;7.85;;;3.13;;
32026;SDS011;18543;50.848;4.596;2023-04-24T07:29:29;5.80;;;2.80;;
32026;SDS011;18543;50.848;4.596;2023-04-24T07:31:56;7.10;;;3.20;;
32026;SDS011;18543;50.848;4.596;2023-04-24T07:34:23;4.57;;;3.00;;
32026;SDS011;18543;50.848;4.596;2023-04-24T07:36:51;4.85;;;2.63;;
32026;SDS011;18543;50.848;4.596;2023-04-24T07:39:18;4.85;;;2.70;;
32026;SDS011;18543;50.848;4.596;2023-04-24T07:41:46;6.78;;;2.85;;
32026;SDS011;18543;50.848;4.596;2023-04-24T07:44:13;7.13;;;2.63;;
32026;SDS011;18543;50.848;4.596;2023-04-24T07:46:40;5.30;;;2.83;;
32026;SDS011;18543;50.848;4.596;2023-04-24T07:49:10;4.22;;;2.70;;
32026;SDS011;18543;50.848;4.596;2023-04-24T07:51:44;4.40;;;2.90;;
32026;SDS011;18543;50.848;4.596;2023-04-24T07:54:11;4.93;;;2.95;;
32026;SDS011;18543;50.848;4.596;2023-04-24T07:56:39;7.75;;;2.92;;
32026;SDS011;18543;50.848;4.596;2023-04-24T07:59:11;6.55;;;2.90;;
32026;SDS011;18543;50.848;4.596;2023-04-24T08:01:38;5.35;;;2.85;;
32026;SDS011;18543;50.848;4.596;2023-04-24T08:04:07;4.93;;;2.60;;
32026;SDS011;18543;50.848;4.596;2023-04-24T08:06:34;4.32;;;2.60;;
32026;SDS011;18543;50.848;4.596;2023-04-24T08:09:02;3.90;;;2.50;;
32026;SDS011;18543;50.848;4.596;2023-04-24T08:11:29;9.63;;;2.55;;
32026;SDS011;18543;50.848;4.596;2023-04-24T08:13:58;5.53;;;2.55;;
32026;SDS011;18543;50.848;4.596;2023-04-24T08:16:25;6.05;;;2.40;;
32026;SDS011;18543;50.848;4.596;2023-04-24T08:18:52;3.45;;;2.45;;
32026;SDS011;18543;50.848;4.596;2023-04-24T08:21:20;4.68;;;2.50;;
32026;SDS011;18543;50.848;4.596;2023-04-24T08:23:47;5.47;;;2.40;;
32026;SDS011;18543;50.848;4.596;2023-04-24T08:26:14;4.33;;;2.70;;
32026;SDS011;18543;50.848;4.596;2023-04-24T08:28:42;4.73;;;2.57;;
32026;SDS011;18543;50.848;4.596;2023-04-24T08:31:09;3.65;;;2.35;;
32026;SDS011;18543;50.848;4.596;2023-04-24T08:33:36;4.80;;;2.63;;
32026;SDS011;18543;50.848;4.596;2023-04-24T08:36:04;4.13;;;2.57;;
32026;SDS011;18543;50.848;4.596;2023-04-24T08:38:31;4.25;;;2.45;;
32026;SDS011;18543;50.848;4.596;2023-04-24T08:41:00;4.47;;;2.60;;
32026;SDS011;18543;50.848;4.596;2023-04-24T08:43:27;4.55;;;2.38;;
32026;SDS011;18543;50.848;4.596;2023-04-24T08:45:55;5.35;;;2.70;;
32026;SDS011;18543;50.848;4.596;2023-04-24T08:48:23;5.35;;;2.75;;
32026;SDS011;18543;50.848;4.596;2023-04-24T08:50:57;3.97;;;2.63;;
32026;SDS011;18543;50.848;4.596;2023-04-24T08:53:25;4.00;;;2.30;;
32026;SDS011;18543;50.848;4.596;2023-04-24T08:58:20;3.97;;;2.30;;
32026;SDS011;18543;50.848;4.596;2023-04-24T09:00:48;3.58;;;2.50;;
32026;SDS011;18543;50.848;4.596;2023-04-24T09:03:16;3.88;;;2.40;;
32026;SDS011;18543;50.848;4.596;2023-04-24T09:05:44;6.65;;;2.72;;
32026;SDS011;18543;50.848;4.596;2023-04-24T09:08:13;3.03;;;2.15;;
32026;SDS011;18543;50.848;4.596;2023-04-24T09:13:08;4.22;;;2.50;;
32026;SDS011;18543;50.848;4.596;2023-04-24T09:15:36;3.17;;;2.28;;
32026;SDS011;18543;50.848;4.596;2023-04-24T09:18:04;5.88;;;2.50;;
32026;SDS011;18543;50.848;4.596;2023-04-24T09:20:31;4.15;;;2.42;;
32026;SDS011;18543;50.848;4.596;2023-04-24T09:22:59;5.10;;;2.78;;
32026;SDS011;18543;50.848;4.596;2023-04-24T09:25:32;3.33;;;2.43;;
32026;SDS011;18543;50.848;4.596;2023-04-24T09:28:00;3.53;;;2.42;;
32026;SDS011;18543;50.848;4.596;2023-04-24T09:30:28;3.45;;;2.30;;
32026;SDS011;18543;50.848;4.596;2023-04-24T09:33:12;3.60;;;2.33;;
32026;SDS011;18543;50.848;4.596;2023-04-24T09:35:40;4.18;;;2.20;;
32026;SDS011;18543;50.848;4.596;2023-04-24T09:38:09;4.53;;;2.25;;
32026;SDS011;18543;50.848;4.596;2023-04-24T09:40:37;4.70;;;2.53;;
32026;SDS011;18543;50.848;4.596;2023-04-24T09:43:09;3.58;;;2.22;;
32026;SDS011;18543;50.848;4.596;2023-04-24T09:45:38;3.20;;;2.40;;
32026;SDS011;18543;50.848;4.596;2023-04-24T09:48:08;3.72;;;2.45;;
32026;SDS011;18543;50.848;4.596;2023-04-24T09:50:37;3.47;;;2.40;;
32026;SDS011;18543;50.848;4.596;2023-04-24T09:53:05;4.10;;;2.50;;
32026;SDS011;18543;50.848;4.596;2023-04-24T09:55:41;5.28;;;2.42;;
32026;SDS011;18543;50.848;4.596;2023-04-24T09:58:12;2.75;;;2.38;;
32026;SDS011;18543;50.848;4.596;2023-04-24T10:00:39;2.95;;;2.38;;
32026;SDS011;18543;50.848;4.596;2023-04-24T10:03:07;3.30;;;2.25;;
32026;SDS011;18543;50.848;4.596;2023-04-24T10:05:35;4.75;;;2.33;;
32026;SDS011;18543;50.848;4.596;2023-04-24T10:08:06;4.50;;;2.53;;
32026;SDS011;18543;50.848;4.596;2023-04-24T10:10:35;4.15;;;2.20;;
32026;SDS011;18543;50.848;4.596;2023-04-24T10:13:04;3.80;;;2.40;;
32026;SDS011;18543;50.848;4.596;2023-04-24T10:15:31;3.28;;;2.35;;
32026;SDS011;18543;50.848;4.596;2023-04-24T10:17:59;3.28;;;2.10;;
32026;SDS011;18543;50.848;4.596;2023-04-24T10:20:27;3.92;;;2.47;;
32026;SDS011;18543;50.848;4.596;2023-04-24T10:22:59;3.55;;;2.40;;
32026;SDS011;18543;50.848;4.596;2023-04-24T10:25:27;4.18;;;2.20;;
32026;SDS011;18543;50.848;4.596;2023-04-24T10:27:55;4.72;;;2.30;;
32026;SDS011;18543;50.848;4.596;2023-04-24T10:30:30;2.92;;;2.08;;
32026;SDS011;18543;50.848;4.596;2023-04-24T10:33:01;3.60;;;2.20;;
32026;SDS011;18543;50.848;4.596;2023-04-24T10:37:57;4.80;;;2.30;;
32026;SDS011;18543;50.848;4.596;2023-04-24T10:40:26;16.30;;;3.00;;
32026;SDS011;18543;50.848;4.596;2023-04-24T10:42:54;16.35;;;3.20;;
32026;SDS011;18543;50.848;4.596;2023-04-24T10:45:24;13.73;;;3.03;;
32026;SDS011;18543;50.848;4.596;2023-04-24T10:48:01;7.93;;;2.75;;
32026;SDS011;18543;50.848;4.596;2023-04-24T10:50:47;9.43;;;2.80;;
32026;SDS011;18543;50.848;4.596;2023-04-24T10:53:16;8.18;;;2.92;;
32026;SDS011;18543;50.848;4.596;2023-04-24T10:55:47;7.47;;;2.65;;
32026;SDS011;18543;50.848;4.596;2023-04-24T10:58:15;5.72;;;2.47;;
32026;SDS011;18543;50.848;4.596;2023-04-24T11:03:50;4.95;;;2.40;;
32026;SDS011;18543;50.848;4.596;2023-04-24T11:06:08;6.20;;;2.45;;
32026;SDS011;18543;50.848;4.596;2023-04-24T11:08:42;5.05;;;2.45;;
32026;SDS011;18543;50.848;4.596;2023-04-24T11:11:13;3.95;;;2.22;;
32026;SDS011;18543;50.848;4.596;2023-04-24T11:14:03;5.45;;;2.10;;
32026;SDS011;18543;50.848;4.596;2023-04-24T11:19:00;4.82;;;2.65;;
32026;SDS011;18543;50.848;4.596;2023-04-24T11:21:31;8.23;;;2.72;;
32026;SDS011;18543;50.848;4.596;2023-04-24T11:23:59;6.50;;;2.80;;
32026;SDS011;18543;50.848;4.596;2023-04-24T11:26:47;5.35;;;2.47;;
32026;SDS011;18543;50.848;4.596;2023-04-24T11:29:14;3.57;;;2.43;;
32026;SDS011;18543;50.848;4.596;2023-04-24T11:31:46;5.38;;;1.98;;
32026;SDS011;18543;50.848;4.596;2023-04-24T11:34:17;4.10;;;2.40;;
32026;SDS011;18543;50.848;4.596;2023-04-24T11:36:45;3.58;;;2.20;;
32026;SDS011;18543;50.848;4.596;2023-04-24T11:39:14;3.63;;;2.30;;
32026;SDS011;18543;50.848;4.596;2023-04-24T11:41:41;4.82;;;2.20;;
32026;SDS011;18543;50.848;4.596;2023-04-24T11:44:09;4.33;;;2.40;;
32026;SDS011;18543;50.848;4.596;2023-04-24T11:46:37;3.40;;;2.13;;
32026;SDS011;18543;50.848;4.596;2023-04-24T11:49:07;6.38;;;2.30;;
32026;SDS011;18543;50.848;4.596;2023-04-24T11:51:34;5.75;;;2.38;;
32026;SDS011;18543;50.848;4.596;2023-04-24T11:54:16;4.60;;;2.20;;
32026;SDS011;18543;50.848;4.596;2023-04-24T11:56:47;2.90;;;1.98;;
32026;SDS011;18543;50.848;4.596;2023-04-24T11:59:14;3.78;;;2.28;;
32026;SDS011;18543;50.848;4.596;2023-04-24T12:01:45;2.97;;;2.10;;
32026;SDS011;18543;50.848;4.596;2023-04-24T12:04:13;3.75;;;2.10;;
32026;SDS011;18543;50.848;4.596;2023-04-24T12:06:58;4.10;;;2.35;;
32026;SDS011;18543;50.848;4.596;2023-04-24T12:09:26;4.75;;;2.30;;
32026;SDS011;18543;50.848;4.596;2023-04-24T12:11:54;5.17;;;2.13;;
32026;SDS011;18543;50.848;4.596;2023-04-24T12:14:24;4.93;;;2.20;;
32026;SDS011;18543;50.848;4.596;2023-04-24T12:16:51;2.85;;;2.20;;
32026;SDS011;18543;50.848;4.596;2023-04-24T12:19:22;3.10;;;2.27;;
32026;SDS011;18543;50.848;4.596;2023-04-24T12:21:59;3.88;;;2.20;;
32026;SDS011;18543;50.848;4.596;2023-04-24T12:24:27;4.20;;;2.20;;
32026;SDS011;18543;50.848;4.596;2023-04-24T12:26:54;3.97;;;2.17;;
32026;SDS011;18543;50.848;4.596;2023-04-24T12:31:50;3.60;;;2.40;;
32026;SDS011;18543;50.848;4.596;2023-04-24T12:36:44;3.43;;;2.10;;
32026;SDS011;18543;50.848;4.596;2023-04-24T12:39:15;4.43;;;2.20;;
32026;SDS011;18543;50.848;4.596;2023-04-24T12:41:56;3.30;;;2.40;;
32026;SDS011;18543;50.848;4.596;2023-04-24T12:44:30;5.70;;;2.30;;
32026;SDS011;18543;50.848;4.596;2023-04-24T12:46:57;4.00;;;2.20;;
32026;SDS011;18543;50.848;4.596;2023-04-24T12:49:25;6.68;;;2.50;;
32026;SDS011;18543;50.848;4.596;2023-04-24T12:51:52;5.90;;;2.67;;
32026;SDS011;18543;50.848;4.596;2023-04-24T12:54:20;7.85;;;2.95;;
32026;SDS011;18543;50.848;4.596;2023-04-24T12:56:47;10.67;;;3.00;;
32026;SDS011;18543;50.848;4.596;2023-04-24T12:59:14;9.37;;;2.90;;
32026;SDS011;18543;50.848;4.596;2023-04-24T13:01:42;9.40;;;3.17;;
32026;SDS011;18543;50.848;4.596;2023-04-24T13:04:09;8.95;;;2.88;;
32026;SDS011;18543;50.848;4.596;2023-04-24T13:06:36;6.70;;;2.65;;
32026;SDS011;18543;50.848;4.596;2023-04-24T13:09:04;6.30;;;2.63;;
32026;SDS011;18543;50.848;4.596;2023-04-24T13:11:31;8.43;;;2.80;;
32026;SDS011;18543;50.848;4.596;2023-04-24T13:13:58;6.33;;;2.63;;
32026;SDS011;18543;50.848;4.596;2023-04-24T13:16:25;7.40;;;2.90;;
32026;SDS011;18543;50.848;4.596;2023-04-24T13:18:53;4.53;;;2.43;;
32026;SDS011;18543;50.848;4.596;2023-04-24T13:21:20;5.23;;;2.60;;
32026;SDS011;18543;50.848;4.596;2023-04-24T13:23:47;4.60;;;2.30;;
32026;SDS011;18543;50.848;4.596;2023-04-24T13:26:15;8.07;;;2.58;;
32026;SDS011;18543;50.848;4.596;2023-04-24T13:28:42;6.40;;;2.40;;
32026;SDS011;18543;50.848;4.596;2023-04-24T13:31:10;3.65;;;2.20;;
32026;SDS011;18543;50.848;4.596;2023-04-24T13:33:37;14.07;;;2.47;;
32026;SDS011;18543;50.848;4.596;2023-04-24T13:36:04;6.07;;;2.60;;
32026;SDS011;18543;50.848;4.596;2023-04-24T13:38:31;4.27;;;2.40;;
32026;SDS011;18543;50.848;4.596;2023-04-24T13:40:59;4.00;;;2.20;;
32026;SDS011;18543;50.848;4.596;2023-04-24T13:43:26;4.68;;;2.75;;
32026;SDS011;18543;50.848;4.596;2023-04-24T13:45:53;5.57;;;2.43;;
32026;SDS011;18543;50.848;4.596;2023-04-24T13:48:21;5.60;;;2.40;;
32026;SDS011;18543;50.848;4.596;2023-04-24T13:50:48;5.93;;;2.17;;
32026;SDS011;18543;50.848;4.596;2023-04-24T13:53:15;3.80;;;2.38;;
32026;SDS011;18543;50.848;4.596;2023-04-24T13:55:43;5.20;;;2.47;;
32026;SDS011;18543;50.848;4.596;2023-04-24T13:58:10;5.30;;;2.63;;
32026;SDS011;18543;50.848;4.596;2023-04-24T14:00:37;5.40;;;2.30;;
32026;SDS011;18543;50.848;4.596;2023-04-24T14:03:04;6.47;;;2.40;;
32026;SDS011;18543;50.848;4.596;2023-04-24T14:05:32;6.43;;;2.75;;
32026;SDS011;18543;50.848;4.596;2023-04-24T14:07:59;4.38;;;2.20;;
32026;SDS011;18543;50.848;4.596;2023-04-24T14:10:27;3.22;;;2.15;;
32026;SDS011;18543;50.848;4.596;2023-04-24T14:12:54;3.60;;;2.38;;
32026;SDS011;18543;50.848;4.596;2023-04-24T14:15:21;3.65;;;2.33;;
32026;SDS011;18543;50.848;4.596;2023-04-24T14:17:49;5.10;;;2.42;;
32026;SDS011;18543;50.848;4.596;2023-04-24T14:20:16;4.22;;;2.45;;
32026;SDS011;18543;50.848;4.596;2023-04-24T14:22:43;4.87;;;2.33;;
32026;SDS011;18543;50.848;4.596;2023-04-24T14:25:10;4.23;;;2.20;;
32026;SDS011;18543;50.848;4.596;2023-04-24T14:27:38;5.57;;;2.30;;
32026;SDS011;18543;50.848;4.596;2023-04-24T14:30:06;9.15;;;2.40;;
32026;SDS011;18543;50.848;4.596;2023-04-24T14:32:33;3.95;;;2.30;;
32026;SDS011;18543;50.848;4.596;2023-04-24T14:35:01;6.28;;;2.47;;
32026;SDS011;18543;50.848;4.596;2023-04-24T14:37:29;6.65;;;2.33;;
32026;SDS011;18543;50.848;4.596;2023-04-24T14:39:56;6.82;;;2.40;;
32026;SDS011;18543;50.848;4.596;2023-04-24T14:42:44;7.18;;;2.45;;
32026;SDS011;18543;50.848;4.596;2023-04-24T14:45:11;3.42;;;2.50;;
32026;SDS011;18543;50.848;4.596;2023-04-24T14:47:39;4.35;;;2.47;;
32026;SDS011;18543;50.848;4.596;2023-04-24T14:50:06;3.90;;;2.30;;
32026;SDS011;18543;50.848;4.596;2023-04-24T14:55:02;7.38;;;2.50;;
32026;SDS011;18543;50.848;4.596;2023-04-24T14:57:29;5.27;;;1.97;;
32026;SDS011;18543;50.848;4.596;2023-04-24T14:59:56;10.70;;;2.50;;
32026;SDS011;18543;50.848;4.596;2023-04-24T15:02:23;4.93;;;2.57;;
32026;SDS011;18543;50.848;4.596;2023-04-24T15:04:51;7.35;;;2.60;;
32026;SDS011;18543;50.848;4.596;2023-04-24T15:07:21;6.13;;;2.30;;
32026;SDS011;18543;50.848;4.596;2023-04-24T15:09:49;6.35;;;2.58;;
32026;SDS011;18543;50.848;4.596;2023-04-24T15:12:16;7.17;;;2.40;;
32026;SDS011;18543;50.848;4.596;2023-04-24T15:14:43;5.32;;;2.35;;
32026;SDS011;18543;50.848;4.596;2023-04-24T15:17:11;5.95;;;2.47;;
32026;SDS011;18543;50.848;4.596;2023-04-24T15:19:40;5.03;;;2.20;;